sensor_id;sensor_type;location;lat;lon;timestamp;P1;durP1;ratioP1;P2;durP2;ratioP2
64018;SDS011;66942;52.138;5.216;2023-05-29T00:00:56;19.0;;;5.6;;
64018;SDS011;66942;52.138;5.216;2023-05-29T00:04:08;20.7;;;5.6;;
64018;SDS011;66942;52.138;5.216;2023-05-29T00:05:44;19.61;;;6.3;;
64018;SDS011;66942;52.138;5.216;2023-05-29T00:07:20;18.5;;;6.2;;
64018;SDS011;66942;52.138;5.216;2023-05-29T00:08:56;18.2;;;5.8;;
64018;SDS011;66942;52.138;5.216;2023-05-29T00:12:09;18.5;;;5.9;;
64018;SDS011;66942;52.138;5.216;2023-05-29T00:13:45;17.8;;;5.8;;
64018;SDS011;66942;52.138;5.216;2023-05-29T00:15:21;20.11;;;5.8;;
64018;SDS011;66942;52.138;5.216;2023-05-29T00:18:33;19.91;;;5.7;;
64018;SDS011;66942;52.138;5.216;2023-05-29T00:20:10;19.61;;;5.4;;
64018;SDS011;66942;52.138;5.216;2023-05-29T00:21:46;20.0;;;5.7;;
64018;SDS011;66942;52.138;5.216;2023-05-29T00:24:59;19.0;;;5.6;;
64018;SDS011;66942;52.138;5.216;2023-05-29T00:26:35;17.7;;;5.2;;
64018;SDS011;66942;52.138;5.216;2023-05-29T00:28:11;17.0;;;6.4;;
64018;SDS011;66942;52.138;5.216;2023-05-29T00:29:47;19.61;;;6.0;;
64018;SDS011;66942;52.138;5.216;2023-05-29T00:32:59;17.11;;;5.3;;
64018;SDS011;66942;52.138;5.216;2023-05-29T00:34:35;15.0;;;5.11;;
64018;SDS011;66942;52.138;5.216;2023-05-29T00:36:12;17.0;;;5.6;;
64018;SDS011;66942;52.138;5.216;2023-05-29T00:39:24;15.8;;;4.91;;
64018;SDS011;66942;52.138;5.216;2023-05-29T00:41:00;16.7;;;5.11;;
64018;SDS011;66942;52.138;5.216;2023-05-29T00:42:36;20.2;;;5.8;;
64018;SDS011;66942;52.138;5.216;2023-05-29T00:45:49;20.0;;;5.4;;
64018;SDS011;66942;52.138;5.216;2023-05-29T00:47:26;17.8;;;5.7;;
64018;SDS011;66942;52.138;5.216;2023-05-29T00:49:02;13.2;;;5.3;;
64018;SDS011;66942;52.138;5.216;2023-05-29T00:52:19;13.2;;;5.3;;
64018;SDS011;66942;52.138;5.216;2023-05-29T00:53:55;13.9;;;5.11;;
64018;SDS011;66942;52.138;5.216;2023-05-29T00:55:34;16.7;;;5.6;;
64018;SDS011;66942;52.138;5.216;2023-05-29T00:57:11;15.4;;;5.2;;
64018;SDS011;66942;52.138;5.216;2023-05-29T01:00:27;19.61;;;5.8;;
64018;SDS011;66942;52.138;5.216;2023-05-29T01:02:03;14.9;;;4.91;;
64018;SDS011;66942;52.138;5.216;2023-05-29T01:03:40;17.3;;;5.4;;
64018;SDS011;66942;52.138;5.216;2023-05-29T01:06:53;17.61;;;5.7;;
64018;SDS011;66942;52.138;5.216;2023-05-29T01:08:29;13.4;;;4.2;;
64018;SDS011;66942;52.138;5.216;2023-05-29T01:10:06;18.61;;;5.5;;
64018;SDS011;66942;52.138;5.216;2023-05-29T01:11:45;15.6;;;4.91;;
64018;SDS011;66942;52.138;5.216;2023-05-29T01:15:14;14.3;;;4.7;;
64018;SDS011;66942;52.138;5.216;2023-05-29T01:16:59;14.3;;;4.7;;
64018;SDS011;66942;52.138;5.216;2023-05-29T01:18:45;20.3;;;5.2;;
64018;SDS011;66942;52.138;5.216;2023-05-29T01:20:31;15.5;;;4.5;;
64018;SDS011;66942;52.138;5.216;2023-05-29T01:22:19;15.0;;;5.0;;
64018;SDS011;66942;52.138;5.216;2023-05-29T01:24:17;15.1;;;4.7;;
64018;SDS011;66942;52.138;5.216;2023-05-29T01:27:57;16.9;;;5.2;;
64018;SDS011;66942;52.138;5.216;2023-05-29T01:29:37;15.7;;;5.11;;
64018;SDS011;66942;52.138;5.216;2023-05-29T01:31:19;15.4;;;4.8;;
64018;SDS011;66942;52.138;5.216;2023-05-29T01:33:00;16.5;;;5.4;;
64018;SDS011;66942;52.138;5.216;2023-05-29T01:34:38;16.3;;;5.5;;
64018;SDS011;66942;52.138;5.216;2023-05-29T01:37:50;15.4;;;4.91;;
64018;SDS011;66942;52.138;5.216;2023-05-29T01:39:26;15.8;;;4.8;;
64018;SDS011;66942;52.138;5.216;2023-05-29T01:41:03;16.0;;;5.0;;
64018;SDS011;66942;52.138;5.216;2023-05-29T01:44:16;14.1;;;4.91;;
64018;SDS011;66942;52.138;5.216;2023-05-29T01:45:54;10.8;;;4.3;;
64018;SDS011;66942;52.138;5.216;2023-05-29T01:47:31;19.0;;;5.4;;
64018;SDS011;66942;52.138;5.216;2023-05-29T01:50:44;16.3;;;5.2;;
64018;SDS011;66942;52.138;5.216;2023-05-29T01:52:21;19.61;;;5.6;;
64018;SDS011;66942;52.138;5.216;2023-05-29T01:53:58;15.0;;;4.61;;
64018;SDS011;66942;52.138;5.216;2023-05-29T01:55:34;14.9;;;4.61;;
64018;SDS011;66942;52.138;5.216;2023-05-29T01:58:47;16.9;;;4.5;;
64018;SDS011;66942;52.138;5.216;2023-05-29T02:00:26;14.8;;;5.11;;
64018;SDS011;66942;52.138;5.216;2023-05-29T02:02:05;18.3;;;5.0;;
64018;SDS011;66942;52.138;5.216;2023-05-29T02:05:18;15.4;;;4.8;;
64018;SDS011;66942;52.138;5.216;2023-05-29T02:06:54;16.8;;;5.0;;
64018;SDS011;66942;52.138;5.216;2023-05-29T02:08:30;16.61;;;5.0;;
64018;SDS011;66942;52.138;5.216;2023-05-29T02:11:44;14.5;;;4.61;;
64018;SDS011;66942;52.138;5.216;2023-05-29T02:13:20;22.5;;;5.5;;
64018;SDS011;66942;52.138;5.216;2023-05-29T02:14:56;14.7;;;5.0;;
64018;SDS011;66942;52.138;5.216;2023-05-29T02:16:32;11.9;;;4.61;;
64018;SDS011;66942;52.138;5.216;2023-05-29T02:19:48;13.9;;;4.5;;
64018;SDS011;66942;52.138;5.216;2023-05-29T02:21:24;18.2;;;5.11;;
64018;SDS011;66942;52.138;5.216;2023-05-29T02:23:01;13.9;;;4.7;;
64018;SDS011;66942;52.138;5.216;2023-05-29T02:26:13;18.3;;;4.7;;
64018;SDS011;66942;52.138;5.216;2023-05-29T02:27:49;15.9;;;4.91;;
64018;SDS011;66942;52.138;5.216;2023-05-29T02:29:25;13.2;;;4.5;;
64018;SDS011;66942;52.138;5.216;2023-05-29T02:32:38;15.6;;;4.61;;
64018;SDS011;66942;52.138;5.216;2023-05-29T02:34:15;15.1;;;4.7;;
64018;SDS011;66942;52.138;5.216;2023-05-29T02:35:51;17.2;;;5.11;;
64018;SDS011;66942;52.138;5.216;2023-05-29T02:37:27;12.9;;;5.0;;
64018;SDS011;66942;52.138;5.216;2023-05-29T02:40:39;14.8;;;4.8;;
64018;SDS011;66942;52.138;5.216;2023-05-29T02:42:15;14.7;;;4.7;;
64018;SDS011;66942;52.138;5.216;2023-05-29T02:43:51;14.6;;;4.8;;
64018;SDS011;66942;52.138;5.216;2023-05-29T02:47:04;14.7;;;4.8;;
64018;SDS011;66942;52.138;5.216;2023-05-29T02:48:41;19.0;;;4.8;;
64018;SDS011;66942;52.138;5.216;2023-05-29T02:50:17;16.5;;;4.7;;
64018;SDS011;66942;52.138;5.216;2023-05-29T02:53:29;15.6;;;5.0;;
64018;SDS011;66942;52.138;5.216;2023-05-29T02:55:07;16.3;;;4.61;;
64018;SDS011;66942;52.138;5.216;2023-05-29T02:56:43;14.0;;;4.7;;
64018;SDS011;66942;52.138;5.216;2023-05-29T02:58:19;16.0;;;4.7;;
64018;SDS011;66942;52.138;5.216;2023-05-29T03:01:32;16.7;;;4.8;;
64018;SDS011;66942;52.138;5.216;2023-05-29T03:03:09;15.8;;;4.8;;
64018;SDS011;66942;52.138;5.216;2023-05-29T03:04:45;14.7;;;5.11;;
64018;SDS011;66942;52.138;5.216;2023-05-29T03:07:57;15.2;;;4.8;;
64018;SDS011;66942;52.138;5.216;2023-05-29T03:09:33;16.3;;;4.8;;
64018;SDS011;66942;52.138;5.216;2023-05-29T03:11:10;20.41;;;5.11;;
64018;SDS011;66942;52.138;5.216;2023-05-29T03:14:22;15.7;;;4.7;;
64018;SDS011;66942;52.138;5.216;2023-05-29T03:15:58;17.0;;;5.4;;
64018;SDS011;66942;52.138;5.216;2023-05-29T03:17:34;14.4;;;4.3;;
64018;SDS011;66942;52.138;5.216;2023-05-29T03:20:46;14.8;;;4.5;;
64018;SDS011;66942;52.138;5.216;2023-05-29T03:22:23;15.7;;;5.0;;
64018;SDS011;66942;52.138;5.216;2023-05-29T03:23:59;14.8;;;5.11;;
64018;SDS011;66942;52.138;5.216;2023-05-29T03:25:35;15.6;;;4.2;;
64018;SDS011;66942;52.138;5.216;2023-05-29T03:28:47;16.0;;;5.2;;
64018;SDS011;66942;52.138;5.216;2023-05-29T03:30:23;19.11;;;4.3;;
64018;SDS011;66942;52.138;5.216;2023-05-29T03:31:59;18.0;;;4.7;;
64018;SDS011;66942;52.138;5.216;2023-05-29T03:35:12;20.0;;;5.4;;
64018;SDS011;66942;52.138;5.216;2023-05-29T03:36:48;13.7;;;4.61;;
64018;SDS011;66942;52.138;5.216;2023-05-29T03:38:23;12.4;;;4.2;;
64018;SDS011;66942;52.138;5.216;2023-05-29T03:41:35;12.3;;;4.61;;
64018;SDS011;66942;52.138;5.216;2023-05-29T03:43:11;13.6;;;4.61;;
64018;SDS011;66942;52.138;5.216;2023-05-29T03:44:48;16.2;;;5.11;;
64018;SDS011;66942;52.138;5.216;2023-05-29T03:48:00;14.2;;;4.7;;
64018;SDS011;66942;52.138;5.216;2023-05-29T03:49:36;14.7;;;4.3;;
64018;SDS011;66942;52.138;5.216;2023-05-29T03:51:12;20.11;;;4.91;;
64018;SDS011;66942;52.138;5.216;2023-05-29T03:52:48;16.3;;;4.8;;
64018;SDS011;66942;52.138;5.216;2023-05-29T03:56:01;16.0;;;4.5;;
64018;SDS011;66942;52.138;5.216;2023-05-29T03:57:37;16.2;;;4.41;;
64018;SDS011;66942;52.138;5.216;2023-05-29T03:59:13;18.2;;;4.91;;
64018;SDS011;66942;52.138;5.216;2023-05-29T04:02:25;14.8;;;3.8;;
64018;SDS011;66942;52.138;5.216;2023-05-29T04:04:02;15.7;;;4.61;;
64018;SDS011;66942;52.138;5.216;2023-05-29T04:05:38;17.41;;;4.5;;
64018;SDS011;66942;52.138;5.216;2023-05-29T04:08:50;16.61;;;4.8;;
64018;SDS011;66942;52.138;5.216;2023-05-29T04:10:26;17.8;;;4.8;;
64018;SDS011;66942;52.138;5.216;2023-05-29T04:12:02;11.7;;;3.9;;
64018;SDS011;66942;52.138;5.216;2023-05-29T04:13:39;16.11;;;5.0;;
64018;SDS011;66942;52.138;5.216;2023-05-29T04:16:51;14.5;;;5.11;;
64018;SDS011;66942;52.138;5.216;2023-05-29T04:18:27;16.5;;;4.5;;
64018;SDS011;66942;52.138;5.216;2023-05-29T04:20:04;13.0;;;4.61;;
64018;SDS011;66942;52.138;5.216;2023-05-29T04:23:17;12.6;;;4.0;;
64018;SDS011;66942;52.138;5.216;2023-05-29T04:24:53;15.1;;;4.91;;
64018;SDS011;66942;52.138;5.216;2023-05-29T04:26:29;14.5;;;4.41;;
64018;SDS011;66942;52.138;5.216;2023-05-29T04:29:42;17.3;;;4.5;;
64018;SDS011;66942;52.138;5.216;2023-05-29T04:31:18;15.0;;;4.91;;
64018;SDS011;66942;52.138;5.216;2023-05-29T04:32:54;17.61;;;5.0;;
64018;SDS011;66942;52.138;5.216;2023-05-29T04:36:06;12.4;;;4.61;;
64018;SDS011;66942;52.138;5.216;2023-05-29T04:37:42;17.5;;;4.5;;
64018;SDS011;66942;52.138;5.216;2023-05-29T04:39:18;13.0;;;4.2;;
64018;SDS011;66942;52.138;5.216;2023-05-29T04:40:55;15.1;;;4.7;;
64018;SDS011;66942;52.138;5.216;2023-05-29T04:44:08;14.5;;;4.61;;
64018;SDS011;66942;52.138;5.216;2023-05-29T04:45:44;14.6;;;4.1;;
64018;SDS011;66942;52.138;5.216;2023-05-29T04:47:20;12.6;;;4.41;;
64018;SDS011;66942;52.138;5.216;2023-05-29T04:50:32;16.9;;;5.11;;
64018;SDS011;66942;52.138;5.216;2023-05-29T04:52:07;14.1;;;4.7;;
64018;SDS011;66942;52.138;5.216;2023-05-29T04:53:44;16.11;;;4.5;;
64018;SDS011;66942;52.138;5.216;2023-05-29T04:56:56;17.5;;;4.91;;
64018;SDS011;66942;52.138;5.216;2023-05-29T04:58:32;13.5;;;4.2;;
64018;SDS011;66942;52.138;5.216;2023-05-29T05:00:08;12.7;;;4.0;;
64018;SDS011;66942;52.138;5.216;2023-05-29T05:01:45;13.5;;;4.2;;
64018;SDS011;66942;52.138;5.216;2023-05-29T05:04:57;16.7;;;4.8;;
64018;SDS011;66942;52.138;5.216;2023-05-29T05:06:34;13.0;;;4.5;;
64018;SDS011;66942;52.138;5.216;2023-05-29T05:08:10;15.2;;;4.8;;
64018;SDS011;66942;52.138;5.216;2023-05-29T05:11:22;16.2;;;4.5;;
64018;SDS011;66942;52.138;5.216;2023-05-29T05:12:59;13.8;;;4.2;;
64018;SDS011;66942;52.138;5.216;2023-05-29T05:14:35;14.4;;;4.5;;
64018;SDS011;66942;52.138;5.216;2023-05-29T05:17:48;13.5;;;4.7;;
64018;SDS011;66942;52.138;5.216;2023-05-29T05:19:24;15.6;;;4.3;;
64018;SDS011;66942;52.138;5.216;2023-05-29T05:21:00;16.5;;;4.5;;
64018;SDS011;66942;52.138;5.216;2023-05-29T05:24:12;14.5;;;5.0;;
64018;SDS011;66942;52.138;5.216;2023-05-29T05:25:48;13.4;;;4.3;;
64018;SDS011;66942;52.138;5.216;2023-05-29T05:27:24;16.0;;;4.61;;
64018;SDS011;66942;52.138;5.216;2023-05-29T05:29:00;15.8;;;4.91;;
64018;SDS011;66942;52.138;5.216;2023-05-29T05:32:13;15.0;;;4.0;;
64018;SDS011;66942;52.138;5.216;2023-05-29T05:33:49;16.7;;;5.0;;
64018;SDS011;66942;52.138;5.216;2023-05-29T05:35:25;14.6;;;5.11;;
64018;SDS011;66942;52.138;5.216;2023-05-29T05:38:37;14.0;;;4.7;;
64018;SDS011;66942;52.138;5.216;2023-05-29T05:40:13;17.5;;;6.4;;
64018;SDS011;66942;52.138;5.216;2023-05-29T05:41:49;20.5;;;5.7;;
64018;SDS011;66942;52.138;5.216;2023-05-29T05:45:02;18.3;;;5.3;;
64018;SDS011;66942;52.138;5.216;2023-05-29T05:46:39;15.2;;;5.3;;
64018;SDS011;66942;52.138;5.216;2023-05-29T05:48:15;14.6;;;4.61;;
64018;SDS011;66942;52.138;5.216;2023-05-29T05:49:51;16.5;;;4.61;;
64018;SDS011;66942;52.138;5.216;2023-05-29T05:53:03;16.5;;;5.3;;
64018;SDS011;66942;52.138;5.216;2023-05-29T05:54:40;15.7;;;4.91;;
64018;SDS011;66942;52.138;5.216;2023-05-29T05:56:16;15.5;;;5.3;;
64018;SDS011;66942;52.138;5.216;2023-05-29T05:59:28;15.3;;;4.91;;
64018;SDS011;66942;52.138;5.216;2023-05-29T06:01:04;13.1;;;5.3;;
64018;SDS011;66942;52.138;5.216;2023-05-29T06:02:40;14.0;;;4.3;;
64018;SDS011;66942;52.138;5.216;2023-05-29T06:05:52;16.9;;;4.8;;
64018;SDS011;66942;52.138;5.216;2023-05-29T06:07:29;14.0;;;4.7;;
64018;SDS011;66942;52.138;5.216;2023-05-29T06:09:05;13.1;;;4.41;;
64018;SDS011;66942;52.138;5.216;2023-05-29T06:12:17;13.7;;;4.0;;
64018;SDS011;66942;52.138;5.216;2023-05-29T06:13:53;15.5;;;4.7;;
64018;SDS011;66942;52.138;5.216;2023-05-29T06:15:29;14.5;;;4.5;;
64018;SDS011;66942;52.138;5.216;2023-05-29T06:17:05;13.3;;;5.11;;
64018;SDS011;66942;52.138;5.216;2023-05-29T06:20:18;14.1;;;4.61;;
64018;SDS011;66942;52.138;5.216;2023-05-29T06:21:54;13.9;;;4.5;;
64018;SDS011;66942;52.138;5.216;2023-05-29T06:23:30;12.9;;;4.91;;
64018;SDS011;66942;52.138;5.216;2023-05-29T06:26:42;14.0;;;5.2;;
64018;SDS011;66942;52.138;5.216;2023-05-29T06:28:18;14.8;;;4.61;;
64018;SDS011;66942;52.138;5.216;2023-05-29T06:29:55;12.9;;;4.3;;
64018;SDS011;66942;52.138;5.216;2023-05-29T06:33:07;12.0;;;3.9;;
64018;SDS011;66942;52.138;5.216;2023-05-29T06:34:43;14.4;;;4.2;;
64018;SDS011;66942;52.138;5.216;2023-05-29T06:36:19;12.7;;;4.61;;
64018;SDS011;66942;52.138;5.216;2023-05-29T06:39:31;12.7;;;4.61;;
64018;SDS011;66942;52.138;5.216;2023-05-29T06:41:07;11.4;;;3.8;;
64018;SDS011;66942;52.138;5.216;2023-05-29T06:42:44;12.1;;;4.1;;
64018;SDS011;66942;52.138;5.216;2023-05-29T06:44:20;13.6;;;4.2;;
64018;SDS011;66942;52.138;5.216;2023-05-29T06:47:32;13.3;;;4.0;;
64018;SDS011;66942;52.138;5.216;2023-05-29T06:49:08;10.7;;;3.9;;
64018;SDS011;66942;52.138;5.216;2023-05-29T06:50:44;15.4;;;5.0;;
64018;SDS011;66942;52.138;5.216;2023-05-29T06:53:57;12.7;;;4.41;;
64018;SDS011;66942;52.138;5.216;2023-05-29T06:55:33;15.8;;;4.7;;
64018;SDS011;66942;52.138;5.216;2023-05-29T06:57:09;12.0;;;4.5;;
64018;SDS011;66942;52.138;5.216;2023-05-29T07:00:21;14.2;;;4.7;;
64018;SDS011;66942;52.138;5.216;2023-05-29T07:01:57;11.1;;;4.3;;
64018;SDS011;66942;52.138;5.216;2023-05-29T07:03:33;11.9;;;4.61;;
64018;SDS011;66942;52.138;5.216;2023-05-29T07:06:46;11.5;;;4.0;;
64018;SDS011;66942;52.138;5.216;2023-05-29T07:08:22;9.9;;;3.7;;
64018;SDS011;66942;52.138;5.216;2023-05-29T07:09:59;11.9;;;4.2;;
64018;SDS011;66942;52.138;5.216;2023-05-29T07:11:35;12.6;;;4.2;;
64018;SDS011;66942;52.138;5.216;2023-05-29T07:14:51;12.3;;;4.1;;
64018;SDS011;66942;52.138;5.216;2023-05-29T07:16:28;11.7;;;4.3;;
64018;SDS011;66942;52.138;5.216;2023-05-29T07:18:04;12.1;;;4.5;;
64018;SDS011;66942;52.138;5.216;2023-05-29T07:21:16;15.7;;;4.7;;
64018;SDS011;66942;52.138;5.216;2023-05-29T07:22:53;13.1;;;4.3;;
64018;SDS011;66942;52.138;5.216;2023-05-29T07:24:29;11.7;;;4.3;;
64018;SDS011;66942;52.138;5.216;2023-05-29T07:26:05;16.2;;;5.0;;
64018;SDS011;66942;52.138;5.216;2023-05-29T07:29:18;10.0;;;4.41;;
64018;SDS011;66942;52.138;5.216;2023-05-29T07:30:54;10.6;;;4.2;;
64018;SDS011;66942;52.138;5.216;2023-05-29T07:32:30;10.4;;;3.6;;
64018;SDS011;66942;52.138;5.216;2023-05-29T07:35:42;14.0;;;4.7;;
64018;SDS011;66942;52.138;5.216;2023-05-29T07:37:18;12.7;;;4.41;;
64018;SDS011;66942;52.138;5.216;2023-05-29T07:38:54;9.71;;;3.9;;
64018;SDS011;66942;52.138;5.216;2023-05-29T07:42:07;11.7;;;4.5;;
64018;SDS011;66942;52.138;5.216;2023-05-29T07:43:43;13.6;;;4.5;;
64018;SDS011;66942;52.138;5.216;2023-05-29T07:45:19;12.0;;;4.5;;
64018;SDS011;66942;52.138;5.216;2023-05-29T07:48:31;10.1;;;3.8;;
64018;SDS011;66942;52.138;5.216;2023-05-29T07:50:08;9.21;;;3.5;;
64018;SDS011;66942;52.138;5.216;2023-05-29T07:51:44;11.0;;;4.0;;
64018;SDS011;66942;52.138;5.216;2023-05-29T07:53:21;11.5;;;4.1;;
64018;SDS011;66942;52.138;5.216;2023-05-29T07:56:33;12.1;;;4.1;;
64018;SDS011;66942;52.138;5.216;2023-05-29T07:58:09;10.9;;;4.2;;
64018;SDS011;66942;52.138;5.216;2023-05-29T07:59:45;9.6;;;4.41;;
64018;SDS011;66942;52.138;5.216;2023-05-29T08:02:57;11.8;;;4.3;;
64018;SDS011;66942;52.138;5.216;2023-05-29T08:04:33;10.7;;;4.1;;
64018;SDS011;66942;52.138;5.216;2023-05-29T08:06:10;11.9;;;4.0;;
64018;SDS011;66942;52.138;5.216;2023-05-29T08:09:22;11.7;;;4.2;;
64018;SDS011;66942;52.138;5.216;2023-05-29T08:10:58;11.1;;;4.3;;
64018;SDS011;66942;52.138;5.216;2023-05-29T08:12:34;11.7;;;4.0;;
64018;SDS011;66942;52.138;5.216;2023-05-29T08:15:46;10.4;;;4.2;;
64018;SDS011;66942;52.138;5.216;2023-05-29T08:17:23;9.1;;;3.9;;
64018;SDS011;66942;52.138;5.216;2023-05-29T08:18:59;9.6;;;3.9;;
64018;SDS011;66942;52.138;5.216;2023-05-29T08:20:35;8.4;;;3.9;;
64018;SDS011;66942;52.138;5.216;2023-05-29T08:23:49;8.1;;;4.1;;
64018;SDS011;66942;52.138;5.216;2023-05-29T08:25:25;9.21;;;3.8;;
64018;SDS011;66942;52.138;5.216;2023-05-29T08:27:01;8.4;;;3.8;;
64018;SDS011;66942;52.138;5.216;2023-05-29T08:30:14;9.31;;;4.1;;
64018;SDS011;66942;52.138;5.216;2023-05-29T08:31:50;10.4;;;3.9;;
64018;SDS011;66942;52.138;5.216;2023-05-29T08:33:27;9.31;;;4.0;;
64018;SDS011;66942;52.138;5.216;2023-05-29T08:36:39;10.1;;;3.9;;
64018;SDS011;66942;52.138;5.216;2023-05-29T08:38:15;12.0;;;4.0;;
64018;SDS011;66942;52.138;5.216;2023-05-29T08:39:50;8.2;;;3.7;;
64018;SDS011;66942;52.138;5.216;2023-05-29T08:41:28;10.5;;;4.2;;
64018;SDS011;66942;52.138;5.216;2023-05-29T08:44:55;9.1;;;3.6;;
64018;SDS011;66942;52.138;5.216;2023-05-29T08:46:32;9.0;;;3.8;;
64018;SDS011;66942;52.138;5.216;2023-05-29T08:48:09;7.8;;;3.8;;
64018;SDS011;66942;52.138;5.216;2023-05-29T08:49:52;8.9;;;3.6;;
64018;SDS011;66942;52.138;5.216;2023-05-29T08:53:12;8.4;;;3.8;;
64018;SDS011;66942;52.138;5.216;2023-05-29T08:54:48;9.6;;;3.6;;
64018;SDS011;66942;52.138;5.216;2023-05-29T08:56:24;8.9;;;4.3;;
64018;SDS011;66942;52.138;5.216;2023-05-29T08:59:39;10.1;;;4.0;;
64018;SDS011;66942;52.138;5.216;2023-05-29T09:01:17;8.6;;;3.7;;
64018;SDS011;66942;52.138;5.216;2023-05-29T09:02:55;8.0;;;3.8;;
64018;SDS011;66942;52.138;5.216;2023-05-29T09:04:30;8.4;;;3.6;;
64018;SDS011;66942;52.138;5.216;2023-05-29T09:07:42;8.4;;;3.6;;
64018;SDS011;66942;52.138;5.216;2023-05-29T09:09:18;9.1;;;3.8;;
64018;SDS011;66942;52.138;5.216;2023-05-29T09:10:54;9.5;;;3.7;;
64018;SDS011;66942;52.138;5.216;2023-05-29T09:14:10;7.9;;;4.0;;
64018;SDS011;66942;52.138;5.216;2023-05-29T09:16:07;9.4;;;4.1;;
64018;SDS011;66942;52.138;5.216;2023-05-29T09:17:43;10.0;;;3.4;;
64018;SDS011;66942;52.138;5.216;2023-05-29T09:19:19;8.31;;;3.3;;
64018;SDS011;66942;52.138;5.216;2023-05-29T09:22:32;8.31;;;3.3;;
64018;SDS011;66942;52.138;5.216;2023-05-29T09:24:08;7.5;;;3.4;;
64018;SDS011;66942;52.138;5.216;2023-05-29T09:25:44;8.4;;;3.5;;
64018;SDS011;66942;52.138;5.216;2023-05-29T09:27:27;7.5;;;3.6;;
64018;SDS011;66942;52.138;5.216;2023-05-29T09:30:40;8.71;;;3.5;;
64018;SDS011;66942;52.138;5.216;2023-05-29T09:32:17;10.3;;;3.6;;
64018;SDS011;66942;52.138;5.216;2023-05-29T09:33:53;8.31;;;3.9;;
64018;SDS011;66942;52.138;5.216;2023-05-29T09:37:11;6.8;;;3.4;;
64018;SDS011;66942;52.138;5.216;2023-05-29T09:38:48;7.2;;;3.5;;
64018;SDS011;66942;52.138;5.216;2023-05-29T09:40:25;9.0;;;3.7;;
64018;SDS011;66942;52.138;5.216;2023-05-29T09:43:37;9.0;;;3.7;;
64018;SDS011;66942;52.138;5.216;2023-05-29T09:45:16;8.1;;;3.7;;
64018;SDS011;66942;52.138;5.216;2023-05-29T09:46:56;9.6;;;3.6;;
64018;SDS011;66942;52.138;5.216;2023-05-29T09:48:34;6.2;;;3.3;;
64018;SDS011;66942;52.138;5.216;2023-05-29T09:51:54;8.9;;;3.7;;
64018;SDS011;66942;52.138;5.216;2023-05-29T09:53:31;7.8;;;3.5;;
64018;SDS011;66942;52.138;5.216;2023-05-29T09:55:07;7.6;;;3.5;;
64018;SDS011;66942;52.138;5.216;2023-05-29T09:56:44;7.1;;;3.3;;
64018;SDS011;66942;52.138;5.216;2023-05-29T09:59:58;7.6;;;3.4;;
64018;SDS011;66942;52.138;5.216;2023-05-29T10:01:36;9.71;;;3.9;;
64018;SDS011;66942;52.138;5.216;2023-05-29T10:03:15;6.8;;;3.3;;
64018;SDS011;66942;52.138;5.216;2023-05-29T10:06:27;10.1;;;3.9;;
64018;SDS011;66942;52.138;5.216;2023-05-29T10:08:05;6.9;;;3.6;;
64018;SDS011;66942;52.138;5.216;2023-05-29T10:09:44;9.6;;;3.8;;
64018;SDS011;66942;52.138;5.216;2023-05-29T10:11:23;7.5;;;3.4;;
64018;SDS011;66942;52.138;5.216;2023-05-29T10:14:38;9.0;;;3.6;;
64018;SDS011;66942;52.138;5.216;2023-05-29T10:16:18;8.4;;;4.0;;
64018;SDS011;66942;52.138;5.216;2023-05-29T10:17:57;7.9;;;3.7;;
64018;SDS011;66942;52.138;5.216;2023-05-29T10:21:17;9.0;;;4.2;;
64018;SDS011;66942;52.138;5.216;2023-05-29T10:22:55;7.9;;;3.9;;
64018;SDS011;66942;52.138;5.216;2023-05-29T10:24:35;9.4;;;3.6;;
64018;SDS011;66942;52.138;5.216;2023-05-29T10:26:14;9.81;;;4.3;;
64018;SDS011;66942;52.138;5.216;2023-05-29T10:29:37;9.21;;;3.8;;
64018;SDS011;66942;52.138;5.216;2023-05-29T10:31:20;7.3;;;3.8;;
64018;SDS011;66942;52.138;5.216;2023-05-29T10:33:07;8.71;;;3.6;;
64018;SDS011;66942;52.138;5.216;2023-05-29T10:35:06;9.4;;;4.1;;
64018;SDS011;66942;52.138;5.216;2023-05-29T10:36:52;9.9;;;4.1;;
64018;SDS011;66942;52.138;5.216;2023-05-29T10:38:37;10.5;;;4.1;;
64018;SDS011;66942;52.138;5.216;2023-05-29T10:41:59;8.4;;;3.5;;
64018;SDS011;66942;52.138;5.216;2023-05-29T10:43:35;8.81;;;3.9;;
64018;SDS011;66942;52.138;5.216;2023-05-29T10:45:47;10.7;;;4.41;;
64018;SDS011;66942;52.138;5.216;2023-05-29T10:47:24;10.1;;;4.1;;
64018;SDS011;66942;52.138;5.216;2023-05-29T10:50:36;10.1;;;4.1;;
64018;SDS011;66942;52.138;5.216;2023-05-29T10:52:12;8.4;;;4.2;;
64018;SDS011;66942;52.138;5.216;2023-05-29T10:53:48;8.71;;;4.5;;
64018;SDS011;66942;52.138;5.216;2023-05-29T10:55:30;11.4;;;4.2;;
64018;SDS011;66942;52.138;5.216;2023-05-29T10:58:46;8.5;;;3.8;;
64018;SDS011;66942;52.138;5.216;2023-05-29T11:00:28;10.3;;;4.2;;
64018;SDS011;66942;52.138;5.216;2023-05-29T11:02:04;7.7;;;4.0;;
64018;SDS011;66942;52.138;5.216;2023-05-29T11:03:40;8.2;;;4.0;;
64018;SDS011;66942;52.138;5.216;2023-05-29T11:06:55;9.81;;;4.1;;
64018;SDS011;66942;52.138;5.216;2023-05-29T11:08:33;7.9;;;3.9;;
64018;SDS011;66942;52.138;5.216;2023-05-29T11:10:11;7.4;;;3.7;;
64018;SDS011;66942;52.138;5.216;2023-05-29T11:13:51;8.0;;;3.9;;
64018;SDS011;66942;52.138;5.216;2023-05-29T11:15:28;10.4;;;4.5;;
64018;SDS011;66942;52.138;5.216;2023-05-29T11:17:04;9.9;;;4.5;;
64018;SDS011;66942;52.138;5.216;2023-05-29T11:18:41;8.2;;;4.41;;
64018;SDS011;66942;52.138;5.216;2023-05-29T11:22:31;7.8;;;4.0;;
64018;SDS011;66942;52.138;5.216;2023-05-29T11:24:27;8.81;;;3.9;;
64018;SDS011;66942;52.138;5.216;2023-05-29T11:26:04;11.2;;;4.3;;
64018;SDS011;66942;52.138;5.216;2023-05-29T11:27:40;10.4;;;4.1;;
64018;SDS011;66942;52.138;5.216;2023-05-29T11:29:21;9.1;;;4.8;;
64018;SDS011;66942;52.138;5.216;2023-05-29T11:30:58;11.0;;;4.8;;
64018;SDS011;66942;52.138;5.216;2023-05-29T11:34:17;9.5;;;3.9;;
64018;SDS011;66942;52.138;5.216;2023-05-29T11:35:55;12.7;;;5.0;;
64018;SDS011;66942;52.138;5.216;2023-05-29T11:37:34;11.4;;;5.5;;
64018;SDS011;66942;52.138;5.216;2023-05-29T11:40:46;10.4;;;4.61;;
64018;SDS011;66942;52.138;5.216;2023-05-29T11:42:22;9.4;;;4.41;;
64018;SDS011;66942;52.138;5.216;2023-05-29T11:43:59;8.5;;;4.3;;
64018;SDS011;66942;52.138;5.216;2023-05-29T11:45:37;8.6;;;3.9;;
64018;SDS011;66942;52.138;5.216;2023-05-29T11:48:48;8.31;;;3.6;;
64018;SDS011;66942;52.138;5.216;2023-05-29T11:50:25;9.71;;;4.61;;
64018;SDS011;66942;52.138;5.216;2023-05-29T11:52:06;10.21;;;4.5;;
64018;SDS011;66942;52.138;5.216;2023-05-29T11:55:23;9.6;;;4.41;;
64018;SDS011;66942;52.138;5.216;2023-05-29T11:57:01;11.0;;;4.91;;
64018;SDS011;66942;52.138;5.216;2023-05-29T11:58:38;11.8;;;4.8;;
64018;SDS011;66942;52.138;5.216;2023-05-29T12:00:16;11.4;;;4.61;;
64018;SDS011;66942;52.138;5.216;2023-05-29T12:03:29;9.21;;;4.41;;
64018;SDS011;66942;52.138;5.216;2023-05-29T12:05:05;9.5;;;4.5;;
64018;SDS011;66942;52.138;5.216;2023-05-29T12:06:42;10.0;;;4.5;;
64018;SDS011;66942;52.138;5.216;2023-05-29T12:09:57;11.0;;;5.0;;
64018;SDS011;66942;52.138;5.216;2023-05-29T12:11:44;9.4;;;4.2;;
64018;SDS011;66942;52.138;5.216;2023-05-29T12:13:21;8.0;;;4.61;;
64018;SDS011;66942;52.138;5.216;2023-05-29T12:14:58;12.0;;;4.8;;
64018;SDS011;66942;52.138;5.216;2023-05-29T12:18:11;10.6;;;4.5;;
64018;SDS011;66942;52.138;5.216;2023-05-29T12:19:47;10.3;;;4.8;;
64018;SDS011;66942;52.138;5.216;2023-05-29T12:21:23;14.6;;;5.0;;
64018;SDS011;66942;52.138;5.216;2023-05-29T12:24:37;11.9;;;4.7;;
64018;SDS011;66942;52.138;5.216;2023-05-29T12:26:13;10.7;;;4.7;;
64018;SDS011;66942;52.138;5.216;2023-05-29T12:27:49;8.9;;;4.61;;
64018;SDS011;66942;52.138;5.216;2023-05-29T12:31:05;12.5;;;4.61;;
64018;SDS011;66942;52.138;5.216;2023-05-29T12:32:42;10.3;;;4.41;;
64018;SDS011;66942;52.138;5.216;2023-05-29T12:34:20;9.9;;;4.8;;
64018;SDS011;66942;52.138;5.216;2023-05-29T12:36:04;10.7;;;5.6;;
64018;SDS011;66942;52.138;5.216;2023-05-29T12:39:19;14.2;;;4.91;;
64018;SDS011;66942;52.138;5.216;2023-05-29T12:40:55;11.4;;;4.8;;
64018;SDS011;66942;52.138;5.216;2023-05-29T12:42:31;9.9;;;4.61;;
64018;SDS011;66942;52.138;5.216;2023-05-29T12:44:08;12.4;;;5.3;;
64018;SDS011;66942;52.138;5.216;2023-05-29T12:47:23;11.2;;;4.8;;